sensor_id;sensor_type;location;lat;lon;timestamp;P1;durP1;ratioP1;P2;durP2;ratioP2
72895;SDS011;61036;53.224;6.554;2024-03-29T00:01:09;37.33;;;23.07;;
72895;SDS011;61036;53.224;6.554;2024-03-29T00:03:34;185.93;;;93.37;;
72895;SDS011;61036;53.224;6.554;2024-03-29T00:06:00;258.67;;;94.10;;
72895;SDS011;61036;53.224;6.554;2024-03-29T00:08:26;289.15;;;118.07;;
72895;SDS011;61036;53.224;6.554;2024-03-29T00:10:51;267.67;;;86.03;;
72895;SDS011;61036;53.224;6.554;2024-03-29T00:13:17;322.13;;;142.17;;
72895;SDS011;61036;53.224;6.554;2024-03-29T00:15:45;15.87;;;4.77;;
72895;SDS011;61036;53.224;6.554;2024-03-29T00:18:10;340.10;;;178.85;;
72895;SDS011;61036;53.224;6.554;2024-03-29T00:20:36;295.50;;;105.00;;
72895;SDS011;61036;53.224;6.554;2024-03-29T00:23:01;346.70;;;166.13;;
72895;SDS011;61036;53.224;6.554;2024-03-29T00:25:27;332.77;;;145.50;;
72895;SDS011;61036;53.224;6.554;2024-03-29T00:27:52;316.63;;;134.67;;
72895;SDS011;61036;53.224;6.554;2024-03-29T00:30:18;353.43;;;173.13;;
72895;SDS011;61036;53.224;6.554;2024-03-29T00:32:43;265.40;;;100.27;;
72895;SDS011;61036;53.224;6.554;2024-03-29T00:35:09;279.87;;;85.73;;
72895;SDS011;61036;53.224;6.554;2024-03-29T00:37:34;268.03;;;138.10;;
72895;SDS011;61036;53.224;6.554;2024-03-29T00:40:00;367.40;;;180.60;;
72895;SDS011;61036;53.224;6.554;2024-03-29T00:42:25;354.47;;;183.33;;
72895;SDS011;61036;53.224;6.554;2024-03-29T00:44:51;318.37;;;118.87;;
72895;SDS011;61036;53.224;6.554;2024-03-29T00:47:16;328.27;;;127.03;;
72895;SDS011;61036;53.224;6.554;2024-03-29T00:49:42;309.77;;;106.03;;
72895;SDS011;61036;53.224;6.554;2024-03-29T00:52:07;302.83;;;103.17;;
72895;SDS011;61036;53.224;6.554;2024-03-29T00:54:33;313.60;;;118.20;;
72895;SDS011;61036;53.224;6.554;2024-03-29T00:56:58;299.93;;;116.87;;
72895;SDS011;61036;53.224;6.554;2024-03-29T00:59:24;305.43;;;111.30;;
72895;SDS011;61036;53.224;6.554;2024-03-29T01:01:50;302.60;;;117.13;;
72895;SDS011;61036;53.224;6.554;2024-03-29T01:04:16;346.03;;;160.17;;
72895;SDS011;61036;53.224;6.554;2024-03-29T01:06:42;5.03;;;1.27;;
72895;SDS011;61036;53.224;6.554;2024-03-29T01:09:08;95.80;;;66.87;;
72895;SDS011;61036;53.224;6.554;2024-03-29T01:11:39;321.33;;;140.13;;
72895;SDS011;61036;53.224;6.554;2024-03-29T01:14:05;313.83;;;112.07;;
72895;SDS011;61036;53.224;6.554;2024-03-29T01:16:31;302.88;;;114.20;;
72895;SDS011;61036;53.224;6.554;2024-03-29T01:18:57;320.80;;;135.70;;
72895;SDS011;61036;53.224;6.554;2024-03-29T01:21:23;306.65;;;116.88;;
72895;SDS011;61036;53.224;6.554;2024-03-29T01:23:49;309.93;;;132.00;;
72895;SDS011;61036;53.224;6.554;2024-03-29T01:26:15;304.43;;;115.77;;
72895;SDS011;61036;53.224;6.554;2024-03-29T01:28:42;290.67;;;116.85;;
72895;SDS011;61036;53.224;6.554;2024-03-29T01:31:08;365.27;;;218.07;;
72895;SDS011;61036;53.224;6.554;2024-03-29T01:33:34;300.80;;;112.03;;
72895;SDS011;61036;53.224;6.554;2024-03-29T01:36:03;361.93;;;211.03;;
72895;SDS011;61036;53.224;6.554;2024-03-29T01:38:29;377.40;;;228.43;;
72895;SDS011;61036;53.224;6.554;2024-03-29T01:40:55;31.80;;;29.30;;
72895;SDS011;61036;53.224;6.554;2024-03-29T01:43:20;172.17;;;141.27;;
72895;SDS011;61036;53.224;6.554;2024-03-29T01:45:47;342.30;;;163.00;;
72895;SDS011;61036;53.224;6.554;2024-03-29T01:48:17;318.35;;;133.85;;
72895;SDS011;61036;53.224;6.554;2024-03-29T01:50:43;337.07;;;166.57;;
72895;SDS011;61036;53.224;6.554;2024-03-29T01:53:09;5.53;;;1.20;;
72895;SDS011;61036;53.224;6.554;2024-03-29T01:55:36;4.00;;;1.23;;
72895;SDS011;61036;53.224;6.554;2024-03-29T01:58:02;204.57;;;128.00;;
72895;SDS011;61036;53.224;6.554;2024-03-29T02:00:28;361.03;;;202.03;;
72895;SDS011;61036;53.224;6.554;2024-03-29T02:02:59;149.03;;;134.00;;
72895;SDS011;61036;53.224;6.554;2024-03-29T02:05:24;301.00;;;146.90;;
72895;SDS011;61036;53.224;6.554;2024-03-29T02:07:51;25.47;;;11.93;;
72895;SDS011;61036;53.224;6.554;2024-03-29T02:10:17;165.57;;;72.50;;
72895;SDS011;61036;53.224;6.554;2024-03-29T02:12:43;5.23;;;1.40;;
72895;SDS011;61036;53.224;6.554;2024-03-29T02:15:13;4.77;;;1.27;;
72895;SDS011;61036;53.224;6.554;2024-03-29T02:17:40;4.90;;;1.17;;
72895;SDS011;61036;53.224;6.554;2024-03-29T02:20:06;4.57;;;1.30;;
72895;SDS011;61036;53.224;6.554;2024-03-29T02:22:31;4.73;;;1.50;;
72895;SDS011;61036;53.224;6.554;2024-03-29T02:25:01;4.00;;;1.40;;
72895;SDS011;61036;53.224;6.554;2024-03-29T02:27:27;8.87;;;1.60;;
72895;SDS011;61036;53.224;6.554;2024-03-29T02:29:52;7.27;;;1.43;;
72895;SDS011;61036;53.224;6.554;2024-03-29T02:32:18;3.60;;;1.10;;
72895;SDS011;61036;53.224;6.554;2024-03-29T02:34:43;3.23;;;1.10;;
72895;SDS011;61036;53.224;6.554;2024-03-29T02:37:09;178.40;;;143.03;;
72895;SDS011;61036;53.224;6.554;2024-03-29T02:39:35;10.63;;;5.30;;
72895;SDS011;61036;53.224;6.554;2024-03-29T02:42:00;68.43;;;57.00;;
72895;SDS011;61036;53.224;6.554;2024-03-29T02:44:25;25.40;;;15.23;;
72895;SDS011;61036;53.224;6.554;2024-03-29T02:46:51;7.60;;;3.00;;
72895;SDS011;61036;53.224;6.554;2024-03-29T02:49:17;5.07;;;1.33;;
72895;SDS011;61036;53.224;6.554;2024-03-29T02:51:42;5.80;;;1.30;;
72895;SDS011;61036;53.224;6.554;2024-03-29T02:54:08;7.20;;;1.37;;
72895;SDS011;61036;53.224;6.554;2024-03-29T02:56:33;7.10;;;1.47;;
72895;SDS011;61036;53.224;6.554;2024-03-29T02:58:58;6.43;;;1.27;;
72895;SDS011;61036;53.224;6.554;2024-03-29T03:01:24;8.03;;;1.23;;
72895;SDS011;61036;53.224;6.554;2024-03-29T03:03:49;5.67;;;1.60;;
72895;SDS011;61036;53.224;6.554;2024-03-29T03:06:15;6.70;;;1.40;;
72895;SDS011;61036;53.224;6.554;2024-03-29T03:08:40;5.67;;;1.50;;
72895;SDS011;61036;53.224;6.554;2024-03-29T03:11:24;6.33;;;1.43;;
72895;SDS011;61036;53.224;6.554;2024-03-29T03:13:50;4.03;;;1.50;;
72895;SDS011;61036;53.224;6.554;2024-03-29T03:16:15;6.07;;;1.63;;
72895;SDS011;61036;53.224;6.554;2024-03-29T03:18:41;5.97;;;1.33;;
72895;SDS011;61036;53.224;6.554;2024-03-29T03:21:06;4.33;;;1.17;;
72895;SDS011;61036;53.224;6.554;2024-03-29T03:23:32;6.57;;;1.67;;
72895;SDS011;61036;53.224;6.554;2024-03-29T03:25:58;5.17;;;1.17;;
72895;SDS011;61036;53.224;6.554;2024-03-29T03:28:25;4.50;;;1.23;;
72895;SDS011;61036;53.224;6.554;2024-03-29T03:30:51;3.70;;;1.13;;
72895;SDS011;61036;53.224;6.554;2024-03-29T03:33:18;166.40;;;72.07;;
72895;SDS011;61036;53.224;6.554;2024-03-29T03:35:43;296.00;;;109.27;;
72895;SDS011;61036;53.224;6.554;2024-03-29T03:38:10;290.63;;;84.97;;
72895;SDS011;61036;53.224;6.554;2024-03-29T03:40:36;275.37;;;85.73;;
72895;SDS011;61036;53.224;6.554;2024-03-29T03:43:02;326.53;;;132.47;;
72895;SDS011;61036;53.224;6.554;2024-03-29T03:45:28;3.20;;;0.97;;
72895;SDS011;61036;53.224;6.554;2024-03-29T03:47:54;5.53;;;1.00;;
72895;SDS011;61036;53.224;6.554;2024-03-29T03:50:19;4.47;;;1.27;;
72895;SDS011;61036;53.224;6.554;2024-03-29T03:52:45;295.23;;;115.20;;
72895;SDS011;61036;53.224;6.554;2024-03-29T03:55:11;296.73;;;134.93;;
72895;SDS011;61036;53.224;6.554;2024-03-29T03:57:36;415.03;;;298.83;;
72895;SDS011;61036;53.224;6.554;2024-03-29T04:00:02;283.77;;;93.77;;
72895;SDS011;61036;53.224;6.554;2024-03-29T04:02:37;333.50;;;155.30;;
72895;SDS011;61036;53.224;6.554;2024-03-29T04:05:02;310.37;;;127.37;;
72895;SDS011;61036;53.224;6.554;2024-03-29T04:07:28;335.53;;;163.57;;
72895;SDS011;61036;53.224;6.554;2024-03-29T04:09:53;321.03;;;142.40;;
72895;SDS011;61036;53.224;6.554;2024-03-29T04:12:19;361.00;;;199.00;;
72895;SDS011;61036;53.224;6.554;2024-03-29T04:14:44;366.47;;;222.37;;
72895;SDS011;61036;53.224;6.554;2024-03-29T04:17:10;185.40;;;120.60;;
72895;SDS011;61036;53.224;6.554;2024-03-29T04:19:35;341.90;;;151.40;;
72895;SDS011;61036;53.224;6.554;2024-03-29T04:22:01;340.73;;;167.17;;
72895;SDS011;61036;53.224;6.554;2024-03-29T04:24:29;339.27;;;167.00;;
72895;SDS011;61036;53.224;6.554;2024-03-29T04:26:55;373.85;;;234.45;;
72895;SDS011;61036;53.224;6.554;2024-03-29T04:29:21;351.90;;;167.77;;
72895;SDS011;61036;53.224;6.554;2024-03-29T04:31:46;380.20;;;234.40;;
72895;SDS011;61036;53.224;6.554;2024-03-29T04:34:12;303.83;;;178.97;;
72895;SDS011;61036;53.224;6.554;2024-03-29T04:36:37;356.63;;;199.83;;
72895;SDS011;61036;53.224;6.554;2024-03-29T04:39:03;349.67;;;182.03;;
72895;SDS011;61036;53.224;6.554;2024-03-29T04:41:29;349.27;;;189.77;;
72895;SDS011;61036;53.224;6.554;2024-03-29T04:43:59;319.08;;;126.15;;
72895;SDS011;61036;53.224;6.554;2024-03-29T04:46:32;335.52;;;158.07;;
72895;SDS011;61036;53.224;6.554;2024-03-29T04:48:58;329.27;;;147.13;;
72895;SDS011;61036;53.224;6.554;2024-03-29T04:51:23;323.23;;;133.57;;
72895;SDS011;61036;53.224;6.554;2024-03-29T04:53:49;319.30;;;136.03;;
72895;SDS011;61036;53.224;6.554;2024-03-29T04:56:17;308.17;;;115.57;;
72895;SDS011;61036;53.224;6.554;2024-03-29T04:58:43;335.92;;;160.10;;
72895;SDS011;61036;53.224;6.554;2024-03-29T05:01:11;314.02;;;122.93;;
72895;SDS011;61036;53.224;6.554;2024-03-29T05:03:36;322.57;;;135.90;;
72895;SDS011;61036;53.224;6.554;2024-03-29T05:06:02;310.57;;;120.53;;
72895;SDS011;61036;53.224;6.554;2024-03-29T05:08:27;310.10;;;110.20;;
72895;SDS011;61036;53.224;6.554;2024-03-29T05:10:53;298.37;;;97.20;;
72895;SDS011;61036;53.224;6.554;2024-03-29T05:13:18;310.60;;;137.73;;
72895;SDS011;61036;53.224;6.554;2024-03-29T05:15:47;309.73;;;120.68;;
72895;SDS011;61036;53.224;6.554;2024-03-29T05:18:13;312.85;;;124.78;;
72895;SDS011;61036;53.224;6.554;2024-03-29T05:20:38;313.97;;;114.00;;
72895;SDS011;61036;53.224;6.554;2024-03-29T05:23:12;324.88;;;144.85;;
72895;SDS011;61036;53.224;6.554;2024-03-29T05:25:39;4.17;;;1.03;;
72895;SDS011;61036;53.224;6.554;2024-03-29T05:28:05;2.80;;;0.90;;
72895;SDS011;61036;53.224;6.554;2024-03-29T05:30:32;8.93;;;3.20;;
72895;SDS011;61036;53.224;6.554;2024-03-29T05:32:58;3.50;;;0.90;;
72895;SDS011;61036;53.224;6.554;2024-03-29T05:35:23;4.80;;;1.10;;
72895;SDS011;61036;53.224;6.554;2024-03-29T05:37:49;66.87;;;44.27;;
72895;SDS011;61036;53.224;6.554;2024-03-29T05:40:17;4.43;;;1.20;;
72895;SDS011;61036;53.224;6.554;2024-03-29T05:42:43;281.03;;;157.13;;
72895;SDS011;61036;53.224;6.554;2024-03-29T05:45:21;122.43;;;79.87;;
72895;SDS011;61036;53.224;6.554;2024-03-29T05:47:55;133.37;;;75.00;;
72895;SDS011;61036;53.224;6.554;2024-03-29T05:50:21;4.90;;;1.20;;
72895;SDS011;61036;53.224;6.554;2024-03-29T05:52:47;166.53;;;117.73;;
72895;SDS011;61036;53.224;6.554;2024-03-29T05:55:13;307.60;;;270.87;;
72895;SDS011;61036;53.224;6.554;2024-03-29T05:57:39;290.77;;;78.50;;
72895;SDS011;61036;53.224;6.554;2024-03-29T06:00:07;4.23;;;1.20;;
72895;SDS011;61036;53.224;6.554;2024-03-29T06:02:34;325.65;;;181.45;;
72895;SDS011;61036;53.224;6.554;2024-03-29T06:05:00;43.47;;;38.90;;
72895;SDS011;61036;53.224;6.554;2024-03-29T06:07:25;4.00;;;1.30;;
72895;SDS011;61036;53.224;6.554;2024-03-29T06:09:53;194.50;;;60.17;;
72895;SDS011;61036;53.224;6.554;2024-03-29T06:12:19;93.53;;;42.03;;
72895;SDS011;61036;53.224;6.554;2024-03-29T06:14:44;88.43;;;42.80;;
72895;SDS011;61036;53.224;6.554;2024-03-29T06:17:28;3.37;;;1.03;;
72895;SDS011;61036;53.224;6.554;2024-03-29T06:19:54;124.53;;;79.10;;
72895;SDS011;61036;53.224;6.554;2024-03-29T06:22:24;3.57;;;1.10;;
72895;SDS011;61036;53.224;6.554;2024-03-29T06:24:50;10.83;;;4.80;;
72895;SDS011;61036;53.224;6.554;2024-03-29T06:27:20;381.30;;;212.73;;
72895;SDS011;61036;53.224;6.554;2024-03-29T06:29:47;3.87;;;1.23;;
72895;SDS011;61036;53.224;6.554;2024-03-29T06:32:14;4.97;;;1.30;;
72895;SDS011;61036;53.224;6.554;2024-03-29T06:34:39;334.27;;;156.80;;
72895;SDS011;61036;53.224;6.554;2024-03-29T06:37:05;3.20;;;1.03;;
72895;SDS011;61036;53.224;6.554;2024-03-29T06:39:30;306.83;;;274.87;;
72895;SDS011;61036;53.224;6.554;2024-03-29T06:41:56;73.27;;;40.93;;
72895;SDS011;61036;53.224;6.554;2024-03-29T06:44:21;28.03;;;21.03;;
72895;SDS011;61036;53.224;6.554;2024-03-29T06:46:47;288.10;;;219.90;;
72895;SDS011;61036;53.224;6.554;2024-03-29T06:49:13;2.57;;;1.13;;
72895;SDS011;61036;53.224;6.554;2024-03-29T06:51:38;2.03;;;0.90;;
72895;SDS011;61036;53.224;6.554;2024-03-29T06:54:05;112.83;;;84.27;;
72895;SDS011;61036;53.224;6.554;2024-03-29T06:56:30;122.17;;;79.77;;
72895;SDS011;61036;53.224;6.554;2024-03-29T06:58:56;270.00;;;143.93;;
72895;SDS011;61036;53.224;6.554;2024-03-29T07:01:21;354.87;;;202.80;;
72895;SDS011;61036;53.224;6.554;2024-03-29T07:03:47;368.47;;;212.83;;
72895;SDS011;61036;53.224;6.554;2024-03-29T07:06:13;350.53;;;222.33;;
72895;SDS011;61036;53.224;6.554;2024-03-29T07:08:38;390.40;;;282.23;;
72895;SDS011;61036;53.224;6.554;2024-03-29T07:11:04;160.17;;;88.80;;
72895;SDS011;61036;53.224;6.554;2024-03-29T07:13:30;390.43;;;304.97;;
72895;SDS011;61036;53.224;6.554;2024-03-29T07:15:58;369.17;;;244.37;;
72895;SDS011;61036;53.224;6.554;2024-03-29T07:18:24;251.20;;;173.80;;
72895;SDS011;61036;53.224;6.554;2024-03-29T07:20:50;314.43;;;127.70;;
72895;SDS011;61036;53.224;6.554;2024-03-29T07:23:16;500.50;;;396.57;;
72895;SDS011;61036;53.224;6.554;2024-03-29T07:25:43;181.20;;;70.40;;
72895;SDS011;61036;53.224;6.554;2024-03-29T07:28:25;388.30;;;228.33;;
72895;SDS011;61036;53.224;6.554;2024-03-29T07:30:51;51.90;;;28.67;;
72895;SDS011;61036;53.224;6.554;2024-03-29T07:33:18;36.60;;;9.70;;
72895;SDS011;61036;53.224;6.554;2024-03-29T07:35:46;131.77;;;72.63;;
72895;SDS011;61036;53.224;6.554;2024-03-29T07:38:13;3.73;;;0.90;;
72895;SDS011;61036;53.224;6.554;2024-03-29T07:40:40;48.00;;;17.70;;
72895;SDS011;61036;53.224;6.554;2024-03-29T07:43:06;3.27;;;1.07;;
72895;SDS011;61036;53.224;6.554;2024-03-29T07:45:31;2.27;;;0.80;;
72895;SDS011;61036;53.224;6.554;2024-03-29T07:47:57;4.13;;;0.90;;
72895;SDS011;61036;53.224;6.554;2024-03-29T07:50:23;204.70;;;62.60;;
72895;SDS011;61036;53.224;6.554;2024-03-29T07:52:50;202.88;;;57.78;;
72895;SDS011;61036;53.224;6.554;2024-03-29T07:55:15;191.77;;;56.07;;
72895;SDS011;61036;53.224;6.554;2024-03-29T07:57:41;200.73;;;57.47;;
72895;SDS011;61036;53.224;6.554;2024-03-29T08:00:06;274.17;;;134.77;;
72895;SDS011;61036;53.224;6.554;2024-03-29T08:02:33;235.27;;;84.18;;
72895;SDS011;61036;53.224;6.554;2024-03-29T08:04:58;239.33;;;99.13;;
72895;SDS011;61036;53.224;6.554;2024-03-29T08:07:24;251.53;;;116.23;;
72895;SDS011;61036;53.224;6.554;2024-03-29T08:09:49;260.13;;;115.13;;
72895;SDS011;61036;53.224;6.554;2024-03-29T08:12:15;3.57;;;1.00;;
72895;SDS011;61036;53.224;6.554;2024-03-29T08:14:41;2.67;;;0.93;;
72895;SDS011;61036;53.224;6.554;2024-03-29T08:17:07;2.43;;;0.77;;
72895;SDS011;61036;53.224;6.554;2024-03-29T08:19:35;2.40;;;1.00;;
72895;SDS011;61036;53.224;6.554;2024-03-29T08:22:01;3.13;;;1.00;;
72895;SDS011;61036;53.224;6.554;2024-03-29T08:24:29;4.20;;;1.03;;
72895;SDS011;61036;53.224;6.554;2024-03-29T08:26:55;3.40;;;1.10;;
72895;SDS011;61036;53.224;6.554;2024-03-29T08:29:20;4.03;;;1.00;;
72895;SDS011;61036;53.224;6.554;2024-03-29T08:31:46;2.70;;;0.87;;
72895;SDS011;61036;53.224;6.554;2024-03-29T08:34:11;15.87;;;10.20;;
72895;SDS011;61036;53.224;6.554;2024-03-29T08:36:39;2.57;;;0.70;;
72895;SDS011;61036;53.224;6.554;2024-03-29T08:39:05;3.10;;;1.03;;
72895;SDS011;61036;53.224;6.554;2024-03-29T08:41:30;249.83;;;109.57;;
72895;SDS011;61036;53.224;6.554;2024-03-29T08:43:56;275.97;;;122.00;;
72895;SDS011;61036;53.224;6.554;2024-03-29T08:46:22;278.23;;;105.03;;
72895;SDS011;61036;53.224;6.554;2024-03-29T08:48:48;266.23;;;92.70;;
72895;SDS011;61036;53.224;6.554;2024-03-29T08:51:13;229.43;;;61.77;;
72895;SDS011;61036;53.224;6.554;2024-03-29T08:53:40;170.10;;;71.93;;
72895;SDS011;61036;53.224;6.554;2024-03-29T08:56:06;242.70;;;96.20;;
72895;SDS011;61036;53.224;6.554;2024-03-29T08:58:31;244.13;;;72.87;;
72895;SDS011;61036;53.224;6.554;2024-03-29T09:00:57;184.43;;;74.80;;
72895;SDS011;61036;53.224;6.554;2024-03-29T09:03:22;236.43;;;92.33;;
72895;SDS011;61036;53.224;6.554;2024-03-29T09:05:49;231.93;;;70.78;;
72895;SDS011;61036;53.224;6.554;2024-03-29T09:08:15;261.25;;;121.95;;
72895;SDS011;61036;53.224;6.554;2024-03-29T09:10:41;339.13;;;244.82;;
72895;SDS011;61036;53.224;6.554;2024-03-29T09:13:07;367.03;;;249.27;;
72895;SDS011;61036;53.224;6.554;2024-03-29T09:15:34;325.23;;;249.57;;
72895;SDS011;61036;53.224;6.554;2024-03-29T09:18:00;4.90;;;2.07;;
72895;SDS011;61036;53.224;6.554;2024-03-29T09:20:34;375.03;;;251.00;;
72895;SDS011;61036;53.224;6.554;2024-03-29T09:23:00;151.10;;;137.57;;
72895;SDS011;61036;53.224;6.554;2024-03-29T09:25:26;325.03;;;192.93;;
72895;SDS011;61036;53.224;6.554;2024-03-29T09:27:51;296.80;;;107.33;;
72895;SDS011;61036;53.224;6.554;2024-03-29T09:30:17;363.17;;;221.17;;
72895;SDS011;61036;53.224;6.554;2024-03-29T09:32:44;399.47;;;258.67;;
72895;SDS011;61036;53.224;6.554;2024-03-29T09:35:10;67.93;;;63.77;;
72895;SDS011;61036;53.224;6.554;2024-03-29T09:37:36;337.17;;;174.10;;
72895;SDS011;61036;53.224;6.554;2024-03-29T09:40:03;327.50;;;147.87;;
72895;SDS011;61036;53.224;6.554;2024-03-29T09:42:29;92.87;;;32.20;;
72895;SDS011;61036;53.224;6.554;2024-03-29T09:44:57;2.10;;;0.90;;
72895;SDS011;61036;53.224;6.554;2024-03-29T09:47:24;2.80;;;0.90;;
72895;SDS011;61036;53.224;6.554;2024-03-29T09:49:51;2.17;;;0.80;;
72895;SDS011;61036;53.224;6.554;2024-03-29T09:52:18;19.53;;;5.20;;
72895;SDS011;61036;53.224;6.554;2024-03-29T09:54:45;4.40;;;1.00;;
72895;SDS011;61036;53.224;6.554;2024-03-29T09:57:10;2.10;;;0.80;;
72895;SDS011;61036;53.224;6.554;2024-03-29T09:59:38;154.03;;;76.40;;
72895;SDS011;61036;53.224;6.554;2024-03-29T10:02:11;2.87;;;1.00;;
72895;SDS011;61036;53.224;6.554;2024-03-29T10:04:42;28.30;;;19.43;;
72895;SDS011;61036;53.224;6.554;2024-03-29T10:07:08;59.83;;;26.47;;
72895;SDS011;61036;53.224;6.554;2024-03-29T10:09:35;2.93;;;0.90;;
72895;SDS011;61036;53.224;6.554;2024-03-29T10:12:01;48.57;;;43.47;;
72895;SDS011;61036;53.224;6.554;2024-03-29T10:14:29;347.53;;;202.60;;
72895;SDS011;61036;53.224;6.554;2024-03-29T10:16:55;286.50;;;202.83;;
72895;SDS011;61036;53.224;6.554;2024-03-29T10:19:22;297.80;;;173.07;;
72895;SDS011;61036;53.224;6.554;2024-03-29T10:21:48;365.80;;;243.53;;
72895;SDS011;61036;53.224;6.554;2024-03-29T10:24:14;339.17;;;204.63;;
72895;SDS011;61036;53.224;6.554;2024-03-29T10:26:40;219.53;;;148.90;;
72895;SDS011;61036;53.224;6.554;2024-03-29T10:29:07;353.33;;;220.87;;
72895;SDS011;61036;53.224;6.554;2024-03-29T10:31:36;65.13;;;44.33;;
72895;SDS011;61036;53.224;6.554;2024-03-29T10:34:02;2.63;;;0.80;;
72895;SDS011;61036;53.224;6.554;2024-03-29T10:36:31;10.63;;;9.43;;
72895;SDS011;61036;53.224;6.554;2024-03-29T10:39:11;1.10;;;0.60;;
72895;SDS011;61036;53.224;6.554;2024-03-29T10:41:39;4.93;;;3.97;;
72895;SDS011;61036;53.224;6.554;2024-03-29T10:44:05;26.27;;;10.03;;
72895;SDS011;61036;53.224;6.554;2024-03-29T10:46:36;1.40;;;0.70;;
72895;SDS011;61036;53.224;6.554;2024-03-29T10:49:03;2.50;;;1.63;;
72895;SDS011;61036;53.224;6.554;2024-03-29T10:51:30;12.73;;;5.73;;
72895;SDS011;61036;53.224;6.554;2024-03-29T10:53:57;6.43;;;1.23;;
72895;SDS011;61036;53.224;6.554;2024-03-29T10:56:24;1.07;;;0.70;;
72895;SDS011;61036;53.224;6.554;2024-03-29T10:58:50;2.77;;;0.70;;
72895;SDS011;61036;53.224;6.554;2024-03-29T11:01:24;313.03;;;280.57;;
72895;SDS011;61036;53.224;6.554;2024-03-29T11:03:54;192.47;;;172.97;;
72895;SDS011;61036;53.224;6.554;2024-03-29T11:06:21;401.83;;;357.00;;
72895;SDS011;61036;53.224;6.554;2024-03-29T11:08:52;379.20;;;292.40;;
72895;SDS011;61036;53.224;6.554;2024-03-29T11:11:19;382.50;;;323.73;;
72895;SDS011;61036;53.224;6.554;2024-03-29T11:13:53;373.63;;;289.77;;
72895;SDS011;61036;53.224;6.554;2024-03-29T11:16:23;281.50;;;229.23;;
72895;SDS011;61036;53.224;6.554;2024-03-29T11:18:49;451.70;;;406.20;;
72895;SDS011;61036;53.224;6.554;2024-03-29T11:21:15;460.93;;;414.87;;
72895;SDS011;61036;53.224;6.554;2024-03-29T11:23:49;334.23;;;308.30;;
72895;SDS011;61036;53.224;6.554;2024-03-29T11:26:17;416.27;;;379.23;;
72895;SDS011;61036;53.224;6.554;2024-03-29T11:28:47;398.97;;;352.83;;
72895;SDS011;61036;53.224;6.554;2024-03-29T11:31:14;331.43;;;293.70;;
72895;SDS011;61036;53.224;6.554;2024-03-29T11:38:38;340.27;;;176.70;;
72895;SDS011;61036;53.224;6.554;2024-03-29T11:41:05;375.03;;;238.07;;
72895;SDS011;61036;53.224;6.554;2024-03-29T11:43:32;448.80;;;401.17;;
72895;SDS011;61036;53.224;6.554;2024-03-29T11:45:59;55.30;;;51.90;;
72895;SDS011;61036;53.224;6.554;2024-03-29T11:48:26;358.57;;;327.10;;
72895;SDS011;61036;53.224;6.554;2024-03-29T11:50:53;394.93;;;348.80;;
72895;SDS011;61036;53.224;6.554;2024-03-29T11:53:19;395.50;;;357.43;;
72895;SDS011;61036;53.224;6.554;2024-03-29T11:55:45;258.50;;;239.57;;
72895;SDS011;61036;53.224;6.554;2024-03-29T11:58:10;33.83;;;31.67;;
72895;SDS011;61036;53.224;6.554;2024-03-29T12:00:37;416.47;;;376.17;;
72895;SDS011;61036;53.224;6.554;2024-03-29T12:03:04;340.67;;;309.97;;
72895;SDS011;61036;53.224;6.554;2024-03-29T12:05:30;409.37;;;364.53;;
72895;SDS011;61036;53.224;6.554;2024-03-29T12:07:56;433.70;;;388.20;;
72895;SDS011;61036;53.224;6.554;2024-03-29T12:10:27;385.80;;;311.47;;
72895;SDS011;61036;53.224;6.554;2024-03-29T12:12:55;421.77;;;377.27;;
72895;SDS011;61036;53.224;6.554;2024-03-29T12:15:23;337.33;;;176.07;;
72895;SDS011;61036;53.224;6.554;2024-03-29T12:17:58;396.57;;;302.00;;
72895;SDS011;61036;53.224;6.554;2024-03-29T12:20:25;53.50;;;48.20;;
72895;SDS011;61036;53.224;6.554;2024-03-29T12:22:51;367.50;;;295.70;;
72895;SDS011;61036;53.224;6.554;2024-03-29T12:25:17;335.47;;;304.37;;
72895;SDS011;61036;53.224;6.554;2024-03-29T12:27:44;400.73;;;340.90;;
72895;SDS011;61036;53.224;6.554;2024-03-29T12:30:11;324.93;;;284.17;;
72895;SDS011;61036;53.224;6.554;2024-03-29T12:32:38;358.37;;;269.57;;
72895;SDS011;61036;53.224;6.554;2024-03-29T12:35:11;175.00;;;164.53;;
72895;SDS011;61036;53.224;6.554;2024-03-29T12:37:47;394.50;;;346.23;;
72895;SDS011;61036;53.224;6.554;2024-03-29T12:40:17;359.20;;;248.20;;
72895;SDS011;61036;53.224;6.554;2024-03-29T12:42:50;307.77;;;172.40;;
72895;SDS011;61036;53.224;6.554;2024-03-29T12:45:17;4.73;;;1.57;;
72895;SDS011;61036;53.224;6.554;2024-03-29T12:47:47;343.23;;;200.07;;
72895;SDS011;61036;53.224;6.554;2024-03-29T12:50:34;306.20;;;126.33;;
72895;SDS011;61036;53.224;6.554;2024-03-29T12:53:05;58.60;;;52.67;;
72895;SDS011;61036;53.224;6.554;2024-03-29T12:55:32;383.60;;;295.40;;
72895;SDS011;61036;53.224;6.554;2024-03-29T12:58:07;308.53;;;280.33;;
72895;SDS011;61036;53.224;6.554;2024-03-29T13:00:35;298.23;;;274.30;;
72895;SDS011;61036;53.224;6.554;2024-03-29T13:03:01;335.97;;;305.73;;
72895;SDS011;61036;53.224;6.554;2024-03-29T13:05:27;364.17;;;235.20;;
72895;SDS011;61036;53.224;6.554;2024-03-29T13:07:57;292.63;;;267.63;;
72895;SDS011;61036;53.224;6.554;2024-03-29T13:10:23;79.13;;;73.60;;
72895;SDS011;61036;53.224;6.554;2024-03-29T13:12:48;75.63;;;69.83;;
72895;SDS011;61036;53.224;6.554;2024-03-29T13:15:20;145.47;;;136.17;;
72895;SDS011;61036;53.224;6.554;2024-03-29T13:17:50;353.27;;;230.23;;
72895;SDS011;61036;53.224;6.554;2024-03-29T13:20:17;472.00;;;425.70;;
72895;SDS011;61036;53.224;6.554;2024-03-29T13:22:43;395.83;;;336.70;;
72895;SDS011;61036;53.224;6.554;2024-03-29T13:25:14;390.00;;;316.83;;
72895;SDS011;61036;53.224;6.554;2024-03-29T13:27:41;352.83;;;241.40;;
72895;SDS011;61036;53.224;6.554;2024-03-29T13:30:08;382.47;;;297.50;;
72895;SDS011;61036;53.224;6.554;2024-03-29T13:32:41;388.83;;;299.70;;
72895;SDS011;61036;53.224;6.554;2024-03-29T13:35:08;362.27;;;275.73;;
72895;SDS011;61036;53.224;6.554;2024-03-29T13:37:38;4.13;;;1.90;;
72895;SDS011;61036;53.224;6.554;2024-03-29T13:40:07;3.50;;;1.73;;
72895;SDS011;61036;53.224;6.554;2024-03-29T13:42:33;19.20;;;6.43;;
72895;SDS011;61036;53.224;6.554;2024-03-29T13:45:02;309.43;;;140.33;;
72895;SDS011;61036;53.224;6.554;2024-03-29T13:47:29;3.93;;;1.63;;
72895;SDS011;61036;53.224;6.554;2024-03-29T13:49:55;335.97;;;196.53;;
72895;SDS011;61036;53.224;6.554;2024-03-29T13:52:21;324.17;;;180.37;;
72895;SDS011;61036;53.224;6.554;2024-03-29T13:54:47;347.27;;;230.67;;
72895;SDS011;61036;53.224;6.554;2024-03-29T13:57:13;374.70;;;261.00;;
72895;SDS011;61036;53.224;6.554;2024-03-29T13:59:39;371.20;;;283.17;;
72895;SDS011;61036;53.224;6.554;2024-03-29T14:02:07;5.63;;;1.20;;
72895;SDS011;61036;53.224;6.554;2024-03-29T14:04:33;402.57;;;358.60;;
72895;SDS011;61036;53.224;6.554;2024-03-29T14:06:58;322.13;;;243.80;;
72895;SDS011;61036;53.224;6.554;2024-03-29T14:09:24;319.67;;;247.87;;
72895;SDS011;61036;53.224;6.554;2024-03-29T14:11:50;291.80;;;202.10;;
72895;SDS011;61036;53.224;6.554;2024-03-29T14:14:15;377.40;;;264.97;;
72895;SDS011;61036;53.224;6.554;2024-03-29T14:16:41;374.10;;;272.07;;